Airfield :
LOGIN :

Register | Disclaimer

   EN    FR    IT 

 










Legend :    VFR   Marginal VFR   IFR   Intensive IFR   Very Intensive IFR
Visi :
Ceiling :
>= 8 km
>= 3000ft
5 to 8 km
1000 to 3000 ft
1500m to 5 km
500 to 1000 ft
800 to 1500m
200 to 500 ft
< 800m
< 200 ft
Symbols :   Thunderstorms  Fog  Heavy snow  Heavy precipitations  Wind > 20 kt
SIGMETs :     Misc.  Thunderstorms  Icing  Turbulence  Mountain Waves  Volcanic Ashes






- Airport Elevation : 42 ft
- IATA code : KGD


UMKK - Khrabrava - Kaliningrad

CURRENT METAR :
  • 251600Z 25002MPS 9999 SCT021 05/03 Q0991 R24/19//95 NOSIG RMK QFE742/0990

EXPIRED METARs :
  • 251530Z 22002MPS 9999 BKN021 06/03 Q0991 R24/19//95 NOSIG RMK QFE742/0990
  • 251500Z 25004MPS 9999 BKN019 06/03 Q0992 R24/19//95 NOSIG RMK QFE743/0990
  • 251430Z 28005MPS 9999 BKN018 07/03 Q0992 R24/19//95 NOSIG RMK QFE743/0991
  • 251400Z 25007MPS 9999 BKN017 07/03 Q0992 R24/290195 NOSIG RMK QFE743/0991
  • 251330Z 25006MPS 9999 BKN016 07/04 Q0992 R24/290195 NOSIG RMK QFE743/0991

TAF TAF UMKK
Valid from the 25 at 15:00 until the 26 at 15:00 UTC


251358Z 2515/2615 23006G12MPS 7000 BKN011 SCT020CB
TEMPO 2515/2606 20003G08MPS 3100 -SHRA BR FEW005 BKN013CB
BECMG 2606/2608 22010G15MPS



MET'MAP, your aeronautical weather chart ! - Copyright ORBIFLY December 2007 - Disclaimer

ORBIFLY MET'MAP TEAM :

Programming & Development : Alexandra Zaïnal
Concept & original design : Baudouin d'Aumeries
Assistance for programming : Marc-Olivier Méhu
Technical & hardware support : Manuel Goepfert

Contact : metmap@orbifly.com




SOURCES & CREDITS :

   NOAA